Time;durP1;ratioP1;P1;durP2;ratioP2;P2;SDS_P1;SDS_P2;PMS_P1;PMS_P2;Temp;Humidity;BMP_temperature;BMP_pressure;BME280_temperature;BME280_humidity;BME280_pressure;Samples;Min_cycle;Max_cycle;Signal;HPM_P1;HPM_P2
2023/06/26 00:02:24;;;;;;;4.65;3.22;;;23.80;99.90;;;;;;5082372;28;20052;-74
2023/06/26 00:04:53;;;;;;;7.30;3.30;;;23.70;99.90;;;;;;5082661;28;20035;-74
2023/06/26 00:07:20;;;;;;;4.50;2.63;;;23.70;99.90;;;;;;5079500;28;20037;-74
2023/06/26 00:09:45;;;;;;;3.42;3.13;;;23.70;99.90;;;;;;5084172;28;20028;-74
2023/06/26 00:12:11;;;;;;;3.15;2.85;;;23.60;99.90;;;;;;5082302;28;20031;-74
2023/06/26 00:14:37;;;;;;;3.65;3.30;;;23.60;99.90;;;;;;5081533;28;20156;-74
2023/06/26 00:17:03;;;;;;;3.60;2.97;;;23.70;99.90;;;;;;5085382;28;20024;-74
2023/06/26 00:19:29;;;;;;;3.63;3.33;;;23.60;99.90;;;;;;5083213;28;20424;-74
2023/06/26 00:21:54;;;;;;;3.38;3.08;;;23.60;1.00;;;;;;5085167;28;20029;-74
2023/06/26 00:24:22;;;;;;;3.60;3.13;;;23.50;1.00;;;;;;5081374;28;20481;-74
2023/06/26 00:26:49;;;;;;;4.50;3.10;;;23.50;1.00;;;;;;5083776;28;20027;-74
2023/06/26 00:29:15;;;;;;;3.58;3.28;;;23.50;1.00;;;;;;5078924;28;20063;-74
2023/06/26 00:31:41;;;;;;;4.57;3.05;;;23.40;1.00;;;;;;5089675;28;20028;-74
2023/06/26 00:34:06;;;;;;;3.50;3.28;;;23.50;1.00;;;;;;5085963;28;20105;-74
2023/06/26 00:36:32;;;;;;;4.47;3.30;;;23.60;1.00;;;;;;5082128;28;20025;-74
2023/06/26 00:38:59;;;;;;;3.78;3.47;;;23.60;1.00;;;;;;5084052;28;20420;-74
2023/06/26 00:41:24;;;;;;;4.93;3.35;;;23.50;1.00;;;;;;5082728;28;20024;-74
2023/06/26 00:43:51;;;;;;;4.13;3.42;;;23.40;1.00;;;;;;5065091;28;20077;-74
2023/06/26 00:46:17;;;;;;;3.85;3.55;;;23.40;1.00;;;;;;5062846;28;20119;-74
2023/06/26 00:48:44;;;;;;;3.58;3.03;;;23.30;1.00;;;;;;5080719;28;20024;-74
2023/06/26 00:51:11;;;;;;;4.25;3.65;;;23.30;1.00;;;;;;5082159;28;20028;-74
2023/06/26 00:53:36;;;;;;;3.30;3.08;;;23.30;1.00;;;;;;5085342;28;20028;-74
2023/06/26 00:56:03;;;;;;;4.25;3.10;;;23.30;1.00;;;;;;5064199;28;20035;-74
2023/06/26 00:58:29;;;;;;;4.45;3.40;;;23.20;1.00;;;;;;5081961;28;20026;-74
2023/06/26 01:00:55;;;;;;;7.22;2.97;;;23.20;1.00;;;;;;5081244;28;20147;-74
2023/06/26 01:03:25;;;;;;;3.17;2.92;;;23.30;1.00;;;;;;5082192;28;20032;-74
2023/06/26 01:05:54;;;;;;;4.43;2.85;;;23.30;1.00;;;;;;5074298;28;20021;-74
2023/06/26 01:08:20;;;;;;;3.03;2.83;;;23.30;1.00;;;;;;5088148;28;20496;-74
2023/06/26 01:10:47;;;;;;;7.13;3.67;;;23.30;1.00;;;;;;5081642;28;20056;-74
2023/06/26 01:13:14;;;;;;;4.82;3.22;;;23.30;1.00;;;;;;5077745;28;20050;-75
2023/06/26 01:15:43;;;;;;;4.15;3.45;;;23.30;1.00;;;;;;5078060;28;20025;-74
2023/06/26 01:18:09;;;;;;;4.28;3.30;;;23.30;1.00;;;;;;5085012;28;20028;-74
2023/06/26 01:20:37;;;;;;;3.45;2.70;;;23.30;1.00;;;;;;5063471;28;20544;-74
2023/06/26 01:23:22;;;;;;;6.20;3.67;;;23.20;1.00;;;;;;5080902;28;20035;-74
2023/06/26 01:26:13;;;;;;;3.45;3.13;;;23.10;1.00;;;;;;5082257;28;20036;-74
2023/06/26 01:28:42;;;;;;;3.75;3.13;;;23.20;1.00;;;;;;5082191;28;20044;-74
2023/06/26 01:31:08;;;;;;;4.80;3.50;;;23.10;1.00;;;;;;5083720;28;20036;-74
2023/06/26 01:33:34;;;;;;;3.35;3.05;;;23.00;12.70;;;;;;5079332;28;20545;-74
2023/06/26 01:36:01;;;;;;;4.22;2.97;;;23.10;1.00;;;;;;5083594;28;20042;-75
2023/06/26 01:38:27;;;;;;;3.42;3.08;;;23.10;1.00;;;;;;5076991;28;20111;-74
2023/06/26 01:40:53;;;;;;;3.53;3.10;;;23.10;1.00;;;;;;5079483;28;20438;-74
2023/06/26 01:43:38;;;;;;;3.40;3.20;;;23.20;1.00;;;;;;5078510;28;20031;-74
2023/06/26 01:46:14;;;;;;;5.78;3.30;;;23.30;1.00;;;;;;5083231;28;20477;-74
2023/06/26 01:49:06;;;;;;;3.45;3.15;;;23.30;1.00;;;;;;5074410;28;20028;-74
2023/06/26 01:51:42;;;;;;;;;;;23.30;1.00;;;;;;5058027;28;20182;-74
2023/06/26 01:54:20;;;;;;;3.33;3.08;;;23.20;1.00;;;;;;5079247;28;19912;-74
2023/06/26 01:56:49;;;;;;;3.65;3.20;;;23.10;5.40;;;;;;5082225;28;20024;-74
2023/06/26 01:59:15;;;;;;;3.65;3.45;;;23.00;27.40;;;;;;5083486;28;20040;-74
2023/06/26 02:01:41;;;;;;;3.70;3.25;;;23.00;27.90;;;;;;5079564;28;20127;-75
2023/06/26 02:04:06;;;;;;;3.42;3.13;;;22.90;81.20;;;;;;5065338;28;20107;-74
2023/06/26 02:06:32;;;;;;;3.38;3.17;;;22.80;99.90;;;;;;5078477;28;20686;-74
2023/06/26 02:08:58;;;;;;;3.63;3.33;;;22.80;99.90;;;;;;5073879;28;20016;-74
2023/06/26 02:11:24;;;;;;;4.72;3.30;;;22.90;99.90;;;;;;5083847;28;20536;-74
2023/06/26 02:13:50;;;;;;;3.75;3.10;;;22.80;99.90;;;;;;5079983;28;20544;-74
2023/06/26 02:16:15;;;;;;;5.03;3.72;;;22.80;99.90;;;;;;5081594;28;20107;-74
2023/06/26 02:18:41;;;;;;;3.35;3.05;;;22.90;99.20;;;;;;5082475;28;20020;-74
2023/06/26 02:21:07;;;;;;;3.78;3.47;;;22.80;99.90;;;;;;5080039;28;20028;-74
2023/06/26 02:23:33;;;;;;;3.92;3.20;;;22.80;99.90;;;;;;5061911;28;20536;-74
2023/06/26 02:25:58;;;;;;;3.95;3.40;;;22.80;99.90;;;;;;5083798;28;20032;-74
2023/06/26 02:28:24;;;;;;;4.40;3.35;;;22.70;99.90;;;;;;5083546;28;20023;-74
2023/06/26 02:30:50;;;;;;;5.80;3.22;;;22.70;99.90;;;;;;5079305;28;20029;-74
2023/06/26 02:33:16;;;;;;;3.63;3.33;;;22.70;99.90;;;;;;5079517;28;20524;-74
2023/06/26 02:35:41;;;;;;;3.83;3.45;;;22.70;99.90;;;;;;5086329;28;20073;-74
2023/06/26 02:38:08;;;;;;;3.78;3.47;;;22.70;99.90;;;;;;5087894;28;20367;-74
2023/06/26 02:40:33;;;;;;;5.85;3.35;;;22.60;99.90;;;;;;5082035;28;20020;-74
2023/06/26 02:42:59;;;;;;;5.00;3.50;;;22.60;99.90;;;;;;5087577;28;20482;-74
2023/06/26 02:45:25;;;;;;;3.95;3.60;;;22.60;99.90;;;;;;5083741;28;20059;-74
2023/06/26 02:47:51;;;;;;;4.13;3.67;;;22.60;99.90;;;;;;5087813;28;20069;-74
2023/06/26 02:50:16;;;;;;;3.75;3.17;;;22.60;99.90;;;;;;5085857;28;20537;-74
2023/06/26 02:52:42;;;;;;;4.75;3.63;;;22.60;99.90;;;;;;5083873;28;20044;-74
2023/06/26 02:55:08;;;;;;;3.58;3.30;;;22.60;99.90;;;;;;5090492;28;20032;-74
2023/06/26 02:57:33;;;;;;;3.75;3.47;;;22.60;99.90;;;;;;5081142;28;20013;-74
2023/06/26 02:59:59;;;;;;;3.67;3.10;;;22.60;99.90;;;;;;5080342;28;20055;-74
2023/06/26 03:02:25;;;;;;;4.10;3.80;;;22.60;99.90;;;;;;5082038;28;20551;-74
2023/06/26 03:04:51;;;;;;;4.22;3.20;;;22.60;99.90;;;;;;5085269;28;20077;-74
2023/06/26 03:07:17;;;;;;;3.47;3.25;;;22.60;99.90;;;;;;5087024;28;20032;-74
2023/06/26 03:09:42;;;;;;;4.32;3.80;;;22.60;99.90;;;;;;5085945;28;20536;-74
2023/06/26 03:12:09;;;;;;;3.90;3.60;;;22.50;99.90;;;;;;5085149;28;20387;-74
2023/06/26 03:14:35;;;;;;;3.80;3.30;;;22.60;99.90;;;;;;5064564;28;20464;-74
2023/06/26 03:17:03;;;;;;;4.30;3.90;;;22.50;99.90;;;;;;5087090;28;20051;-74
2023/06/26 03:19:29;;;;;;;4.97;3.30;;;22.40;99.90;;;;;;5082954;28;20445;-74
2023/06/26 03:21:55;;;;;;;3.83;3.03;;;22.40;99.90;;;;;;5079665;28;20016;-74
2023/06/26 03:24:21;;;;;;;6.03;3.95;;;22.40;99.90;;;;;;5082495;28;20020;-74
2023/06/26 03:26:47;;;;;;;7.25;3.67;;;22.40;99.90;;;;;;5084882;28;20039;-74
2023/06/26 03:29:12;;;;;;;3.90;3.60;;;22.40;99.90;;;;;;5085420;28;20075;-74
2023/06/26 03:31:38;;;;;;;3.70;3.40;;;22.30;99.90;;;;;;5082213;28;20025;-74
2023/06/26 03:34:03;;;;;;;4.68;3.60;;;22.40;99.90;;;;;;5083267;28;20023;-74
2023/06/26 03:36:29;;;;;;;5.00;4.25;;;22.30;99.90;;;;;;5087386;28;20024;-74
2023/06/26 03:38:56;;;;;;;4.22;3.65;;;22.40;99.90;;;;;;5086093;28;20020;-74
2023/06/26 03:41:23;;;;;;;5.10;3.20;;;22.40;99.90;;;;;;5085845;28;20135;-74
2023/06/26 03:43:49;;;;;;;5.35;3.75;;;22.50;99.90;;;;;;5067951;28;20061;-74
2023/06/26 03:46:15;;;;;;;5.85;3.33;;;22.50;99.90;;;;;;5064720;28;20031;-75
2023/06/26 03:48:41;;;;;;;4.38;3.35;;;22.50;99.90;;;;;;5082854;28;20024;-74
2023/06/26 03:51:07;;;;;;;3.83;3.42;;;22.60;99.90;;;;;;5088970;28;20535;-74
2023/06/26 03:53:33;;;;;;;4.65;3.92;;;22.60;99.90;;;;;;5064229;28;20424;-75
2023/06/26 03:55:59;;;;;;;5.85;3.50;;;22.50;99.90;;;;;;5067922;28;20016;-74
2023/06/26 03:58:25;;;;;;;4.40;3.20;;;22.60;99.90;;;;;;5083201;28;20027;-74
2023/06/26 04:00:51;;;;;;;4.65;3.15;;;22.50;99.90;;;;;;5083111;28;20063;-74
2023/06/26 04:03:17;;;;;;;4.15;3.33;;;22.50;99.90;;;;;;5084334;28;20057;-74
2023/06/26 04:05:43;;;;;;;4.13;3.72;;;22.60;99.90;;;;;;5063730;28;20025;-74
2023/06/26 04:08:09;;;;;;;4.15;3.75;;;22.60;99.90;;;;;;5068299;28;20477;-74
2023/06/26 04:10:36;;;;;;;3.47;3.25;;;22.60;99.90;;;;;;5086122;28;20035;-74
2023/06/26 04:13:02;;;;;;;3.95;3.55;;;22.70;99.90;;;;;;5085908;28;20409;-74
2023/06/26 04:15:28;;;;;;;4.45;3.05;;;22.60;99.90;;;;;;5085116;28;20513;-75
2023/06/26 04:17:53;;;;;;;5.15;3.50;;;22.60;99.90;;;;;;5078361;28;20020;-74
2023/06/26 04:20:19;;;;;;;4.35;3.60;;;22.60;99.90;;;;;;5064104;28;20013;-74
2023/06/26 04:22:45;;;;;;;9.77;4.05;;;22.60;99.90;;;;;;5085864;28;20020;-75
2023/06/26 04:25:13;;;;;;;3.58;3.28;;;22.60;99.90;;;;;;5081930;28;20478;-75
2023/06/26 04:27:39;;;;;;;3.95;3.45;;;22.50;99.90;;;;;;5081983;28;20020;-75
2023/06/26 04:30:06;;;;;;;4.45;3.80;;;22.50;99.90;;;;;;5084261;28;20055;-74
2023/06/26 04:32:31;;;;;;;3.33;2.83;;;22.50;99.90;;;;;;5081662;28;20355;-74
2023/06/26 04:34:57;;;;;;;3.50;3.20;;;22.60;99.90;;;;;;5082889;28;20187;-75
2023/06/26 04:37:26;;;;;;;4.38;3.75;;;22.60;99.90;;;;;;5084747;28;20130;-74
2023/06/26 04:39:52;;;;;;;5.25;3.22;;;22.60;99.90;;;;;;5063832;28;20499;-74
2023/06/26 04:42:18;;;;;;;5.30;4.15;;;22.60;99.90;;;;;;5067433;28;20078;-74
2023/06/26 04:44:44;;;;;;;4.72;3.38;;;22.70;93.80;;;;;;5065966;28;20032;-74
2023/06/26 04:47:10;;;;;;;6.57;3.85;;;22.60;99.90;;;;;;5084810;28;20035;-74
2023/06/26 04:49:35;;;;;;;5.97;3.70;;;22.60;99.90;;;;;;5084569;28;20035;-75
2023/06/26 04:52:01;;;;;;;3.75;3.45;;;22.60;99.90;;;;;;5081840;28;20025;-74
2023/06/26 04:54:28;;;;;;;3.40;3.20;;;22.60;99.90;;;;;;5085377;28;20508;-74
2023/06/26 04:56:53;;;;;;;4.05;3.75;;;22.60;99.90;;;;;;5062537;28;20024;-74
2023/06/26 04:59:19;;;;;;;9.68;3.70;;;22.60;99.90;;;;;;5082998;28;20073;-74
2023/06/26 05:01:48;;;;;;;4.70;3.65;;;22.60;99.90;;;;;;5081772;28;20044;-74
2023/06/26 05:04:15;;;;;;;6.30;3.30;;;22.60;99.90;;;;;;5082012;28;20089;-74
2023/06/26 05:06:41;;;;;;;8.63;3.63;;;22.60;99.90;;;;;;5082281;28;20368;-74
2023/06/26 05:09:10;;;;;;;6.57;3.83;;;22.70;99.90;;;;;;5071176;28;20434;-74
2023/06/26 05:11:40;;;;;;;7.00;3.53;;;22.70;99.90;;;;;;5079699;28;20055;-75
2023/06/26 05:14:09;;;;;;;3.67;3.10;;;22.70;99.90;;;;;;5071696;28;20028;-75
2023/06/26 05:16:35;;;;;;;8.25;3.80;;;22.80;99.90;;;;;;5080123;28;20036;-74
2023/06/26 05:19:01;;;;;;;4.03;3.70;;;22.80;55.80;;;;;;5069737;28;20027;-74
2023/06/26 05:21:28;;;;;;;4.30;3.28;;;22.90;71.10;;;;;;5069719;28;20046;-74
2023/06/26 05:23:56;;;;;;;5.03;3.70;;;22.90;29.60;;;;;;5080756;28;20490;-74
2023/06/26 05:26:22;;;;;;;5.13;3.45;;;23.00;14.70;;;;;;5067608;28;20110;-74
2023/06/26 05:28:48;;;;;;;5.43;3.95;;;23.10;1.00;;;;;;5087946;28;20046;-74
2023/06/26 05:31:17;;;;;;;5.82;3.60;;;23.10;1.00;;;;;;5066749;28;20027;-75
2023/06/26 05:33:47;;;;;;;7.88;3.72;;;23.20;1.00;;;;;;5063753;28;20028;-74
2023/06/26 05:36:15;;;;;;;5.28;3.28;;;23.20;1.00;;;;;;5080362;28;20284;-74
2023/06/26 05:38:41;;;;;;;7.20;3.63;;;23.30;1.00;;;;;;5062911;28;20025;-75
2023/06/26 05:41:07;;;;;;;10.60;3.83;;;23.30;1.00;;;;;;5064542;28;20024;-74
2023/06/26 05:43:32;;;;;;;7.70;3.45;;;23.40;1.00;;;;;;5063675;28;20077;-74
2023/06/26 05:45:58;;;;;;;7.32;3.88;;;23.40;1.00;;;;;;5088258;28;20020;-74
2023/06/26 05:48:24;;;;;;;6.90;3.78;;;23.50;1.00;;;;;;5076129;28;20028;-74
2023/06/26 05:50:50;;;;;;;5.30;3.92;;;23.60;99.90;;;;;;5075966;28;20103;-74
2023/06/26 05:53:16;;;;;;;4.03;3.63;;;23.70;1.00;;;;;;5085381;28;20149;-74
2023/06/26 05:55:42;;;;;;;3.53;3.20;;;23.80;99.90;;;;;;5081356;28;20066;-74
2023/06/26 05:58:10;;;;;;;6.13;3.90;;;23.80;99.90;;;;;;5065640;28;20456;-74
2023/06/26 06:00:36;;;;;;;4.15;3.50;;;23.90;99.90;;;;;;5080792;28;20037;-74
2023/06/26 06:03:02;;;;;;;9.13;3.88;;;24.00;99.90;;;;;;5080189;28;20116;-74
2023/06/26 06:05:28;;;;;;;8.05;3.80;;;24.00;99.90;;;;;;5083923;28;20094;-74
2023/06/26 06:07:54;;;;;;;5.13;3.45;;;24.10;99.90;;;;;;5077318;28;20479;-74
2023/06/26 06:10:19;;;;;;;5.50;3.58;;;24.20;99.90;;;;;;5076416;28;20389;-74
2023/06/26 06:12:45;;;;;;;3.35;3.05;;;24.30;99.90;;;;;;5059576;28;20462;-74
2023/06/26 06:15:14;;;;;;;4.40;3.30;;;24.40;99.90;;;;;;5078507;28;20021;-74
2023/06/26 06:17:42;;;;;;;3.80;3.50;;;24.40;99.90;;;;;;5080628;28;20075;-71
2023/06/26 06:20:08;;;;;;;3.72;3.42;;;24.50;99.90;;;;;;5082322;28;20029;-71
2023/06/26 06:22:34;;;;;;;4.85;3.75;;;24.60;99.90;;;;;;5081524;28;20521;-71
2023/06/26 06:25:00;;;;;;;9.38;3.50;;;24.60;99.90;;;;;;5078303;28;20115;-71
2023/06/26 06:27:26;;;;;;;5.90;4.05;;;24.70;99.90;;;;;;5079141;28;20032;-71
2023/06/26 06:29:52;;;;;;;4.57;3.55;;;24.80;99.90;;;;;;5079160;28;20131;-71
2023/06/26 06:32:18;;;;;;;7.43;3.83;;;24.80;99.90;;;;;;5083266;28;20553;-71
2023/06/26 06:34:44;;;;;;;8.27;4.00;;;24.80;99.90;;;;;;5080817;28;20043;-71
2023/06/26 06:37:09;;;;;;;6.00;3.55;;;24.90;99.90;;;;;;5077641;28;20115;-71
2023/06/26 06:39:35;;;;;;;10.95;3.88;;;25.00;99.90;;;;;;5079710;28;20017;-71
2023/06/26 06:42:01;;;;;;;5.55;3.67;;;25.00;99.90;;;;;;5078378;28;20134;-71
2023/06/26 06:44:26;;;;;;;6.10;3.50;;;25.00;99.90;;;;;;5064754;28;20072;-71
2023/06/26 06:46:55;;;;;;;4.05;3.47;;;25.10;99.90;;;;;;5076692;28;20047;-71
2023/06/26 06:49:21;;;;;;;5.90;3.83;;;25.20;99.90;;;;;;5082519;28;20424;-71
2023/06/26 06:51:46;;;;;;;6.05;4.07;;;25.20;99.90;;;;;;5079632;28;20032;-71
2023/06/26 06:54:12;;;;;;;8.80;3.63;;;25.30;99.90;;;;;;5077922;28;20020;-71
2023/06/26 06:56:38;;;;;;;5.20;4.22;;;25.30;99.90;;;;;;5069589;28;20060;-71
2023/06/26 06:59:03;;;;;;;6.07;4.18;;;25.40;99.90;;;;;;5090034;28;20382;-71
2023/06/26 07:01:29;;;;;;;8.00;3.92;;;25.40;99.90;;;;;;5072790;28;20049;-71
2023/06/26 07:03:55;;;;;;;16.60;5.18;;;25.50;99.90;;;;;;5039594;28;20025;-71
2023/06/26 07:06:20;;;;;;;16.92;4.80;;;25.60;99.90;;;;;;5035472;28;20537;-71
2023/06/26 07:08:46;;;;;;;17.83;4.93;;;25.70;99.90;;;;;;5040116;28;20018;-71
2023/06/26 07:11:12;;;;;;;13.85;4.55;;;25.70;99.90;;;;;;5040507;28;20026;-72
2023/06/26 07:13:38;;;;;;;4.47;3.45;;;25.80;99.90;;;;;;5038153;28;20025;-71
2023/06/26 07:16:07;;;;;;;8.82;3.63;;;25.80;99.90;;;;;;5040410;28;20072;-71
2023/06/26 07:18:33;;;;;;;7.22;3.85;;;25.90;99.90;;;;;;5040325;28;20033;-71
2023/06/26 07:20:58;;;;;;;4.72;4.03;;;26.00;99.90;;;;;;5041950;28;20029;-71
2023/06/26 07:23:24;;;;;;;4.80;4.35;;;26.10;99.90;;;;;;5043863;28;20048;-71
2023/06/26 07:25:50;;;;;;;6.50;3.97;;;26.00;99.90;;;;;;5039877;28;20025;-71
2023/06/26 07:28:15;;;;;;;6.82;4.38;;;26.10;99.90;;;;;;5040946;28;20371;-71
2023/06/26 07:30:41;;;;;;;10.18;4.70;;;26.10;99.90;;;;;;5042277;28;20021;-71
2023/06/26 07:33:07;;;;;;;6.47;4.05;;;26.10;99.90;;;;;;5041864;28;20119;-72
2023/06/26 07:35:33;;;;;;;7.28;3.83;;;26.10;99.90;;;;;;5036792;28;20025;-71
2023/06/26 07:37:59;;;;;;;4.63;4.05;;;26.10;99.90;;;;;;5040676;28;20026;-71
2023/06/26 07:40:26;;;;;;;5.05;3.67;;;26.20;99.90;;;;;;5041473;28;20037;-71
2023/06/26 07:42:53;;;;;;;7.22;4.53;;;26.20;98.50;;;;;;5043596;28;20410;-71
2023/06/26 07:45:19;;;;;;;6.65;3.83;;;26.30;96.70;;;;;;5041405;28;20021;-72
2023/06/26 07:47:45;;;;;;;4.35;3.33;;;26.40;92.60;;;;;;5042341;28;20055;-71
2023/06/26 07:50:11;;;;;;;6.35;4.07;;;26.40;99.90;;;;;;5039760;28;20029;-71
2023/06/26 07:52:40;;;;;;;9.85;4.40;;;26.50;99.90;;;;;;5035842;28;20475;-75
2023/06/26 07:55:06;;;;;;;10.40;5.20;;;26.50;2.30;;;;;;5051920;28;20360;-73
2023/06/26 07:57:32;;;;;;;15.10;13.57;;;26.50;85.80;;;;;;5036041;28;20108;-73
2023/06/26 07:59:58;;;;;;;19.35;11.85;;;26.50;99.90;;;;;;5041336;28;20188;-71
2023/06/26 08:02:23;;;;;;;7.07;4.60;;;26.50;24.90;;;;;;5084176;28;20054;-71
2023/06/26 08:04:49;;;;;;;8.13;4.13;;;26.50;1.00;;;;;;5087632;28;20365;-71
2023/06/26 08:07:15;;;;;;;5.75;4.30;;;26.60;10.80;;;;;;5083491;28;20082;-71
2023/06/26 08:09:41;;;;;;;9.30;4.22;;;26.70;1.00;;;;;;5079678;28;20436;-71
2023/06/26 08:12:07;;;;;;;4.90;3.75;;;26.80;1.00;;;;;;5062007;28;20039;-71
2023/06/26 08:14:33;;;;;;;9.30;4.25;;;26.80;1.00;;;;;;5079906;28;20476;-71
2023/06/26 08:16:59;;;;;;;8.38;3.67;;;26.90;1.00;;;;;;5074831;28;20020;-71
2023/06/26 08:19:25;;;;;;;6.05;3.83;;;27.00;1.00;;;;;;5081838;28;20057;-71
2023/06/26 08:21:51;;;;;;;8.18;4.00;;;27.10;41.50;;;;;;5061811;28;20424;-71
2023/06/26 08:24:18;;;;;;;14.02;3.65;;;27.20;1.00;;;;;;5082929;28;20031;-71
2023/06/26 08:26:45;;;;;;;6.43;3.97;;;27.20;1.00;;;;;;5078777;28;20390;-71
2023/06/26 08:29:11;;;;;;;7.18;4.00;;;27.20;1.00;;;;;;5083326;28;20017;-71
2023/06/26 08:31:41;;;;;;;8.35;3.38;;;27.10;1.00;;;;;;5079003;28;20108;-71
2023/06/26 08:34:08;;;;;;;3.72;3.42;;;27.20;1.00;;;;;;5064303;28;20036;-71
2023/06/26 08:36:33;;;;;;;3.50;3.20;;;27.30;1.00;;;;;;5078762;28;20111;-71
2023/06/26 08:38:59;;;;;;;4.45;3.60;;;27.40;99.50;;;;;;5066149;28;20608;-71
2023/06/26 08:41:25;;;;;;;5.32;3.10;;;27.50;99.70;;;;;;5083782;28;20099;-72
2023/06/26 08:43:52;;;;;;;4.72;3.63;;;27.60;99.80;;;;;;5081518;28;20022;-71
2023/06/26 08:46:19;;;;;;;3.88;3.38;;;27.70;99.00;;;;;;5076762;28;20085;-71
2023/06/26 08:48:49;;;;;;;5.45;3.40;;;27.70;99.20;;;;;;5083418;28;20035;-72
2023/06/26 08:51:17;;;;;;;3.15;2.95;;;27.80;98.10;;;;;;5077412;28;20048;-71
2023/06/26 08:53:48;;;;;;;9.48;3.58;;;27.80;97.40;;;;;;5066177;28;20159;-71
2023/06/26 08:56:17;;;;;;;5.35;4.38;;;27.80;97.10;;;;;;5081734;28;20051;-71
2023/06/26 08:58:47;;;;;;;5.30;2.92;;;27.90;97.10;;;;;;5080482;28;20104;-71
2023/06/26 09:01:13;;;;;;;6.00;3.30;;;27.90;96.50;;;;;;5080411;28;20043;-71
2023/06/26 09:03:38;;;;;;;7.43;3.45;;;27.90;96.40;;;;;;5075408;28;20024;-71
2023/06/26 09:06:04;;;;;;;4.43;3.10;;;28.00;95.90;;;;;;5081933;28;20433;-71
2023/06/26 09:08:30;;;;;;;5.28;3.53;;;28.00;95.20;;;;;;5079679;28;20282;-71
2023/06/26 09:10:56;;;;;;;4.00;3.70;;;28.00;95.00;;;;;;5080457;28;20155;-72
2023/06/26 09:13:22;;;;;;;4.60;3.95;;;27.90;95.00;;;;;;5080999;28;20025;-71
2023/06/26 09:15:47;;;;;;;6.70;3.55;;;28.10;94.80;;;;;;5083645;28;20082;-71
2023/06/26 09:18:16;;;;;;;5.13;3.53;;;28.10;95.50;;;;;;5080717;28;20025;-71
2023/06/26 09:20:42;;;;;;;10.40;3.30;;;28.10;95.80;;;;;;5076397;28;20029;-71
2023/06/26 09:23:09;;;;;;;5.57;3.22;;;28.20;95.90;;;;;;5081088;28;20082;-71
2023/06/26 09:25:39;;;;;;;3.78;3.40;;;28.40;96.00;;;;;;5078821;28;20385;-71
2023/06/26 09:28:05;;;;;;;3.63;3.33;;;28.40;94.60;;;;;;5079354;28;20032;-71
2023/06/26 09:30:32;;;;;;;3.55;3.25;;;28.50;95.00;;;;;;5084485;28;20089;-71
2023/06/26 09:33:16;;;;;;;5.70;3.22;;;28.40;95.20;;;;;;5078303;28;20028;-72
2023/06/26 09:35:46;;;;;;;6.63;3.63;;;28.60;94.50;;;;;;5074146;28;20091;-71
2023/06/26 09:38:13;;;;;;;6.72;3.38;;;28.50;93.10;;;;;;5081542;28;20025;-71
2023/06/26 09:40:39;;;;;;;5.57;3.15;;;28.70;93.60;;;;;;5078522;28;20031;-71
2023/06/26 09:43:06;;;;;;;3.10;2.90;;;28.80;91.90;;;;;;5079101;28;20039;-71
2023/06/26 09:45:39;;;;;;;7.00;3.30;;;28.80;91.70;;;;;;5078462;28;20033;-71
2023/06/26 09:48:07;;;;;;;3.10;2.90;;;28.80;92.50;;;;;;5079020;28;20024;-71
2023/06/26 09:50:37;;;;;;;7.22;3.53;;;28.90;91.70;;;;;;5079286;28;20382;-71
2023/06/26 09:53:10;;;;;;;6.55;3.58;;;29.00;90.70;;;;;;5078742;28;20099;-71
2023/06/26 09:55:37;;;;;;;3.92;3.55;;;29.00;90.30;;;;;;5058678;28;20032;-71
2023/06/26 09:58:03;;;;;;;4.80;3.20;;;28.90;90.50;;;;;;5080076;28;20020;-72
2023/06/26 10:00:31;;;;;;;6.38;3.58;;;28.90;91.50;;;;;;5064712;28;20054;-72
2023/06/26 10:02:57;;;;;;;3.78;3.10;;;28.90;90.90;;;;;;5081079;28;20039;-71
2023/06/26 10:05:24;;;;;;;3.60;3.30;;;29.00;89.80;;;;;;5081696;28;20048;-71
2023/06/26 10:07:52;;;;;;;4.50;3.38;;;29.10;89.60;;;;;;5081896;28;20020;-71
2023/06/26 10:10:20;;;;;;;7.95;3.13;;;29.10;89.40;;;;;;5076391;28;20036;-72
2023/06/26 10:12:48;;;;;;;5.90;3.83;;;29.20;87.60;;;;;;5080312;28;20028;-71
2023/06/26 10:15:16;;;;;;;3.72;3.42;;;29.20;88.00;;;;;;5079613;28;20036;-71
2023/06/26 10:17:45;;;;;;;3.38;3.10;;;29.20;86.40;;;;;;5075559;28;20493;-71
2023/06/26 10:20:13;;;;;;;2.92;2.67;;;29.20;87.20;;;;;;5079698;28;20062;-71
2023/06/26 10:22:46;;;;;;;6.53;3.47;;;29.30;87.30;;;;;;5081784;28;20059;-71
2023/06/26 10:25:18;;;;;;;3.72;3.40;;;29.40;84.60;;;;;;5079843;28;20028;-71
2023/06/26 10:27:50;;;;;;;3.58;3.03;;;29.40;81.60;;;;;;5059437;28;20020;-72
2023/06/26 10:30:22;;;;;;;3.70;3.42;;;29.60;84.00;;;;;;5079857;28;20032;-71
2023/06/26 10:32:48;;;;;;;3.53;3.22;;;29.50;83.60;;;;;;5065098;28;20342;-71
2023/06/26 10:35:14;;;;;;;4.38;3.17;;;29.70;81.80;;;;;;5080372;28;20100;-71
2023/06/26 10:37:48;;;;;;;4.10;3.75;;;29.70;80.80;;;;;;5075760;28;20025;-71
2023/06/26 10:40:20;;;;;;;7.10;3.78;;;29.70;81.90;;;;;;5082120;28;20035;-71
2023/06/26 10:42:46;;;;;;;4.18;3.78;;;29.70;81.30;;;;;;5078857;28;20036;-71
2023/06/26 10:45:15;;;;;;;6.05;3.22;;;29.80;75.70;;;;;;5077720;28;20040;-71
2023/06/26 10:47:45;;;;;;;3.13;2.88;;;29.90;77.30;;;;;;5080012;28;20028;-71
2023/06/26 10:50:26;;;;;;;3.53;3.25;;;30.10;75.30;;;;;;5079230;28;20032;-71
2023/06/26 10:53:34;;;;;;;3.33;3.13;;;30.10;75.70;;;;;;5077357;28;20127;-71
2023/06/26 10:56:02;;;;;;;3.45;3.15;;;30.30;73.00;;;;;;5083245;28;20025;-71
2023/06/26 10:58:41;;;;;;;3.40;3.20;;;30.40;71.80;;;;;;5059673;28;20020;-71
2023/06/26 11:01:21;;;;;;;4.03;3.63;;;30.30;69.40;;;;;;5078729;28;20051;-71
2023/06/26 11:04:06;;;;;;;2.85;2.65;;;30.50;71.30;;;;;;5080261;28;20132;-72
2023/06/26 11:06:34;;;;;;;3.55;3.25;;;30.50;67.20;;;;;;5081394;28;20435;-71
2023/06/26 11:09:02;;;;;;;3.22;2.97;;;30.50;65.50;;;;;;5080549;28;20482;-71
2023/06/26 11:11:59;;;;;;;4.18;3.03;;;30.70;67.20;;;;;;5077604;28;20036;-71
2023/06/26 11:14:29;;;;;;;3.55;3.03;;;30.80;67.10;;;;;;5079273;28;20021;-71
2023/06/26 11:16:58;;;;;;;3.42;3.22;;;31.00;65.40;;;;;;5079530;28;20043;-71
2023/06/26 11:19:27;;;;;;;13.50;3.88;;;31.00;64.10;;;;;;5084613;28;20020;-71
2023/06/26 11:21:59;;;;;;;6.07;3.33;;;31.00;62.80;;;;;;5077438;28;20529;-71
2023/06/26 11:24:26;;;;;;;4.53;3.40;;;31.10;63.90;;;;;;5064472;28;20024;-71
2023/06/26 11:26:52;;;;;;;5.22;3.28;;;31.10;63.50;;;;;;5076550;28;20028;-71
2023/06/26 11:29:18;;;;;;;4.60;3.22;;;31.10;65.10;;;;;;5081683;28;20027;-71
2023/06/26 11:31:43;;;;;;;3.67;3.35;;;31.30;64.00;;;;;;5083373;28;20326;-71
2023/06/26 11:34:12;;;;;;;5.20;3.58;;;31.30;62.70;;;;;;5079678;28;20023;-71
2023/06/26 11:36:39;;;;;;;5.57;3.30;;;31.40;63.00;;;;;;5079621;28;20500;-71
2023/06/26 11:39:06;;;;;;;4.90;3.38;;;31.40;63.70;;;;;;5081063;28;20019;-71
2023/06/26 11:41:33;;;;;;;4.20;3.47;;;31.50;62.40;;;;;;5080735;28;20359;-71
2023/06/26 11:44:07;;;;;;;5.35;3.25;;;31.60;60.70;;;;;;5064418;28;20560;-71
2023/06/26 11:46:37;;;;;;;3.60;3.30;;;31.60;57.90;;;;;;5076798;28;20474;-71
2023/06/26 11:49:04;;;;;;;3.42;3.13;;;31.50;56.40;;;;;;5062061;28;20024;-71
2023/06/26 11:51:30;;;;;;;3.88;3.50;;;31.50;58.60;;;;;;5079879;28;20111;-71
2023/06/26 11:53:55;;;;;;;3.42;3.13;;;31.80;58.50;;;;;;5065808;28;20131;-71
2023/06/26 11:56:25;;;;;;;3.70;3.40;;;31.90;56.40;;;;;;5059064;28;20042;-71
2023/06/26 11:59:06;;;;;;;5.85;3.65;;;32.00;57.70;;;;;;5081941;28;20090;-71
2023/06/26 12:01:44;;;;;;;3.75;3.45;;;32.20;57.90;;;;;;5080321;28;20040;-72
2023/06/26 12:04:12;;;;;;;8.30;3.55;;;32.40;56.80;;;;;;5083742;28;20390;-71
2023/06/26 12:06:40;;;;;;;4.88;3.05;;;32.40;56.80;;;;;;5088675;28;20509;-71
2023/06/26 12:09:09;;;;;;;5.50;3.25;;;32.60;57.90;;;;;;5071538;28;20631;-71
2023/06/26 12:11:38;;;;;;;3.40;3.13;;;32.60;58.60;;;;;;5085962;28;20024;-72
2023/06/26 12:14:06;;;;;;;5.35;3.35;;;32.60;56.40;;;;;;5087263;28;20040;-71
2023/06/26 12:16:34;;;;;;;5.03;3.88;;;32.50;58.10;;;;;;5078159;28;20048;-71
2023/06/26 12:19:04;;;;;;;4.65;3.53;;;32.60;58.00;;;;;;5085627;28;20091;-74
2023/06/26 12:21:39;;;;;;;3.33;3.00;;;32.80;60.00;;;;;;5082036;28;20589;-74
2023/06/26 12:24:07;;;;;;;3.83;3.42;;;33.10;60.60;;;;;;5082961;28;20066;-74
2023/06/26 12:26:33;;;;;;;4.05;3.47;;;33.10;58.60;;;;;;5084978;28;20032;-74
2023/06/26 12:29:06;;;;;;;7.60;3.28;;;33.30;60.40;;;;;;5073604;28;20032;-74
2023/06/26 12:31:33;;;;;;;4.25;3.03;;;33.50;59.70;;;;;;5083682;28;20021;-74
2023/06/26 12:33:59;;;;;;;4.13;3.80;;;33.60;58.00;;;;;;5082819;28;20024;-74
2023/06/26 12:36:25;;;;;;;6.75;3.58;;;33.60;57.50;;;;;;5083242;28;20027;-74
2023/06/26 12:38:53;;;;;;;5.22;3.45;;;33.60;57.60;;;;;;5073102;28;20032;-74
2023/06/26 12:41:20;;;;;;;4.85;3.78;;;33.60;57.70;;;;;;5077629;28;20632;-74
2023/06/26 12:43:46;;;;;;;4.55;3.50;;;33.60;56.80;;;;;;5072313;28;20078;-74
2023/06/26 12:46:12;;;;;;;4.47;3.70;;;33.70;57.80;;;;;;5076924;28;20032;-74
2023/06/26 12:48:47;;;;;;;5.03;3.50;;;33.80;58.10;;;;;;5071891;28;20050;-74
2023/06/26 12:51:17;;;;;;;5.60;3.38;;;33.80;59.40;;;;;;5090373;28;20024;-74